sensor_id;sensor_type;location;lat;lon;timestamp;P1;durP1;ratioP1;P2;durP2;ratioP2
49578;SDS011;35483;50.828;3.228;2023-04-03T00:01:28;26.70;;;24.00;;
49578;SDS011;35483;50.828;3.228;2023-04-03T00:03:54;24.25;;;21.75;;
49578;SDS011;35483;50.828;3.228;2023-04-03T00:06:20;24.92;;;22.23;;
49578;SDS011;35483;50.828;3.228;2023-04-03T00:08:46;26.35;;;23.63;;
49578;SDS011;35483;50.828;3.228;2023-04-03T00:11:12;24.63;;;22.15;;
49578;SDS011;35483;50.828;3.228;2023-04-03T00:13:38;26.50;;;23.80;;
49578;SDS011;35483;50.828;3.228;2023-04-03T00:16:04;23.63;;;21.33;;
49578;SDS011;35483;50.828;3.228;2023-04-03T00:18:31;25.85;;;23.35;;
49578;SDS011;35483;50.828;3.228;2023-04-03T00:20:57;25.48;;;22.98;;
49578;SDS011;35483;50.828;3.228;2023-04-03T00:23:23;25.27;;;22.67;;
49578;SDS011;35483;50.828;3.228;2023-04-03T00:25:49;28.50;;;24.73;;
49578;SDS011;35483;50.828;3.228;2023-04-03T00:28:15;26.42;;;23.83;;
49578;SDS011;35483;50.828;3.228;2023-04-03T00:30:41;26.38;;;23.73;;
49578;SDS011;35483;50.828;3.228;2023-04-03T00:33:07;26.65;;;24.05;;
49578;SDS011;35483;50.828;3.228;2023-04-03T00:35:34;26.77;;;24.00;;
49578;SDS011;35483;50.828;3.228;2023-04-03T00:38:00;26.15;;;23.45;;
49578;SDS011;35483;50.828;3.228;2023-04-03T00:40:26;26.88;;;23.98;;
49578;SDS011;35483;50.828;3.228;2023-04-03T00:42:56;26.05;;;23.27;;
49578;SDS011;35483;50.828;3.228;2023-04-03T00:45:25;24.67;;;22.10;;
49578;SDS011;35483;50.828;3.228;2023-04-03T00:48:02;26.90;;;22.90;;
49578;SDS011;35483;50.828;3.228;2023-04-03T00:50:31;24.85;;;22.25;;
49578;SDS011;35483;50.828;3.228;2023-04-03T00:53:00;24.52;;;22.02;;
49578;SDS011;35483;50.828;3.228;2023-04-03T00:55:27;24.77;;;22.33;;
49578;SDS011;35483;50.828;3.228;2023-04-03T00:57:53;25.15;;;22.00;;
49578;SDS011;35483;50.828;3.228;2023-04-03T01:00:21;23.65;;;21.30;;
49578;SDS011;35483;50.828;3.228;2023-04-03T01:02:48;25.63;;;22.85;;
49578;SDS011;35483;50.828;3.228;2023-04-03T01:05:15;25.35;;;22.85;;
49578;SDS011;35483;50.828;3.228;2023-04-03T01:07:42;26.08;;;23.27;;
49578;SDS011;35483;50.828;3.228;2023-04-03T01:10:11;25.20;;;22.70;;
49578;SDS011;35483;50.828;3.228;2023-04-03T01:12:40;25.38;;;21.63;;
49578;SDS011;35483;50.828;3.228;2023-04-03T01:15:16;23.70;;;21.20;;
49578;SDS011;35483;50.828;3.228;2023-04-03T01:17:46;23.85;;;21.52;;
49578;SDS011;35483;50.828;3.228;2023-04-03T01:25:34;24.25;;;21.67;;
49578;SDS011;35483;50.828;3.228;2023-04-03T01:28:03;22.42;;;20.20;;
49578;SDS011;35483;50.828;3.228;2023-04-03T01:30:34;22.77;;;20.48;;
49578;SDS011;35483;50.828;3.228;2023-04-03T01:33:03;23.50;;;21.15;;
49578;SDS011;35483;50.828;3.228;2023-04-03T01:35:29;23.33;;;20.80;;
49578;SDS011;35483;50.828;3.228;2023-04-03T01:37:55;22.98;;;20.60;;
49578;SDS011;35483;50.828;3.228;2023-04-03T01:40:21;25.15;;;21.65;;
49578;SDS011;35483;50.828;3.228;2023-04-03T01:42:47;23.75;;;21.33;;
49578;SDS011;35483;50.828;3.228;2023-04-03T01:45:12;23.20;;;20.77;;
49578;SDS011;35483;50.828;3.228;2023-04-03T01:47:38;24.25;;;21.65;;
49578;SDS011;35483;50.828;3.228;2023-04-03T01:50:04;23.20;;;20.85;;
49578;SDS011;35483;50.828;3.228;2023-04-03T01:52:30;23.65;;;20.75;;
49578;SDS011;35483;50.828;3.228;2023-04-03T01:54:56;23.02;;;20.63;;
49578;SDS011;35483;50.828;3.228;2023-04-03T01:57:21;23.00;;;20.60;;
49578;SDS011;35483;50.828;3.228;2023-04-03T01:59:47;23.40;;;20.90;;
49578;SDS011;35483;50.828;3.228;2023-04-03T02:02:13;26.40;;;20.90;;
49578;SDS011;35483;50.828;3.228;2023-04-03T02:04:40;22.80;;;20.50;;
49578;SDS011;35483;50.828;3.228;2023-04-03T02:07:06;22.00;;;19.70;;
49578;SDS011;35483;50.828;3.228;2023-04-03T02:09:31;22.15;;;19.95;;
49578;SDS011;35483;50.828;3.228;2023-04-03T02:11:57;21.77;;;19.50;;
49578;SDS011;35483;50.828;3.228;2023-04-03T02:14:23;22.52;;;19.83;;
49578;SDS011;35483;50.828;3.228;2023-04-03T02:16:49;22.80;;;20.38;;
49578;SDS011;35483;50.828;3.228;2023-04-03T02:19:15;21.42;;;18.67;;
49578;SDS011;35483;50.828;3.228;2023-04-03T02:21:41;21.42;;;19.20;;
49578;SDS011;35483;50.828;3.228;2023-04-03T02:24:07;23.70;;;21.08;;
49578;SDS011;35483;50.828;3.228;2023-04-03T02:26:32;21.77;;;19.52;;
49578;SDS011;35483;50.828;3.228;2023-04-03T02:28:58;21.83;;;19.52;;
49578;SDS011;35483;50.828;3.228;2023-04-03T02:31:24;21.67;;;19.30;;
49578;SDS011;35483;50.828;3.228;2023-04-03T02:33:50;21.58;;;19.08;;
49578;SDS011;35483;50.828;3.228;2023-04-03T02:36:16;20.90;;;18.77;;
49578;SDS011;35483;50.828;3.228;2023-04-03T02:38:42;20.55;;;18.48;;
49578;SDS011;35483;50.828;3.228;2023-04-03T02:41:09;20.83;;;18.73;;
49578;SDS011;35483;50.828;3.228;2023-04-03T02:43:35;20.27;;;18.17;;
49578;SDS011;35483;50.828;3.228;2023-04-03T02:46:02;21.08;;;18.70;;
49578;SDS011;35483;50.828;3.228;2023-04-03T02:48:28;21.77;;;19.48;;
49578;SDS011;35483;50.828;3.228;2023-04-03T02:50:55;19.80;;;17.73;;
49578;SDS011;35483;50.828;3.228;2023-04-03T02:53:21;19.75;;;17.08;;
49578;SDS011;35483;50.828;3.228;2023-04-03T02:55:47;18.48;;;16.50;;
49578;SDS011;35483;50.828;3.228;2023-04-03T02:58:13;20.10;;;18.00;;
49578;SDS011;35483;50.828;3.228;2023-04-03T03:00:39;18.40;;;16.48;;
49578;SDS011;35483;50.828;3.228;2023-04-03T03:03:05;18.85;;;16.30;;
49578;SDS011;35483;50.828;3.228;2023-04-03T03:05:31;18.20;;;16.40;;
49578;SDS011;35483;50.828;3.228;2023-04-03T03:07:56;18.60;;;15.70;;
49578;SDS011;35483;50.828;3.228;2023-04-03T03:10:22;18.10;;;16.20;;
49578;SDS011;35483;50.828;3.228;2023-04-03T03:12:48;17.45;;;15.80;;
49578;SDS011;35483;50.828;3.228;2023-04-03T03:15:14;17.80;;;15.93;;
49578;SDS011;35483;50.828;3.228;2023-04-03T03:17:42;16.77;;;14.98;;
49578;SDS011;35483;50.828;3.228;2023-04-03T03:20:08;17.95;;;16.20;;
49578;SDS011;35483;50.828;3.228;2023-04-03T03:22:35;17.40;;;15.45;;
49578;SDS011;35483;50.828;3.228;2023-04-03T03:25:01;17.52;;;15.52;;
49578;SDS011;35483;50.828;3.228;2023-04-03T03:27:27;17.33;;;14.52;;
49578;SDS011;35483;50.828;3.228;2023-04-03T03:29:53;16.00;;;14.40;;
49578;SDS011;35483;50.828;3.228;2023-04-03T03:32:19;16.58;;;14.88;;
49578;SDS011;35483;50.828;3.228;2023-04-03T03:34:45;15.77;;;14.07;;
49578;SDS011;35483;50.828;3.228;2023-04-03T03:37:11;15.90;;;13.73;;
49578;SDS011;35483;50.828;3.228;2023-04-03T03:39:37;15.70;;;14.07;;
49578;SDS011;35483;50.828;3.228;2023-04-03T03:42:02;15.10;;;13.50;;
49578;SDS011;35483;50.828;3.228;2023-04-03T03:44:28;15.90;;;14.38;;
49578;SDS011;35483;50.828;3.228;2023-04-03T03:46:54;15.98;;;14.27;;
49578;SDS011;35483;50.828;3.228;2023-04-03T03:49:21;15.50;;;13.15;;
49578;SDS011;35483;50.828;3.228;2023-04-03T03:51:46;14.52;;;13.02;;
49578;SDS011;35483;50.828;3.228;2023-04-03T03:54:13;14.68;;;13.15;;
49578;SDS011;35483;50.828;3.228;2023-04-03T03:56:39;13.48;;;12.18;;
49578;SDS011;35483;50.828;3.228;2023-04-03T03:59:05;14.60;;;12.43;;
49578;SDS011;35483;50.828;3.228;2023-04-03T04:01:32;14.73;;;13.23;;
49578;SDS011;35483;50.828;3.228;2023-04-03T04:03:58;13.85;;;12.52;;
49578;SDS011;35483;50.828;3.228;2023-04-03T04:06:23;14.02;;;12.00;;
49578;SDS011;35483;50.828;3.228;2023-04-03T04:08:50;16.40;;;12.75;;
49578;SDS011;35483;50.828;3.228;2023-04-03T04:11:15;13.82;;;12.43;;
49578;SDS011;35483;50.828;3.228;2023-04-03T04:13:42;15.80;;;13.00;;
49578;SDS011;35483;50.828;3.228;2023-04-03T04:16:09;13.98;;;12.57;;
49578;SDS011;35483;50.828;3.228;2023-04-03T04:18:34;13.95;;;12.43;;
49578;SDS011;35483;50.828;3.228;2023-04-03T04:21:00;14.30;;;12.75;;
49578;SDS011;35483;50.828;3.228;2023-04-03T04:23:26;14.50;;;13.00;;
49578;SDS011;35483;50.828;3.228;2023-04-03T04:25:51;15.93;;;14.23;;
49578;SDS011;35483;50.828;3.228;2023-04-03T04:28:17;15.90;;;14.10;;
49578;SDS011;35483;50.828;3.228;2023-04-03T04:30:43;14.77;;;13.27;;
49578;SDS011;35483;50.828;3.228;2023-04-03T04:33:10;16.08;;;14.38;;
49578;SDS011;35483;50.828;3.228;2023-04-03T04:35:36;16.27;;;14.68;;
49578;SDS011;35483;50.828;3.228;2023-04-03T04:38:02;15.10;;;13.57;;
49578;SDS011;35483;50.828;3.228;2023-04-03T04:40:28;15.77;;;13.63;;
49578;SDS011;35483;50.828;3.228;2023-04-03T04:42:53;15.65;;;14.23;;
49578;SDS011;35483;50.828;3.228;2023-04-03T04:45:20;17.45;;;14.80;;
49578;SDS011;35483;50.828;3.228;2023-04-03T04:47:45;19.20;;;14.57;;
49578;SDS011;35483;50.828;3.228;2023-04-03T04:50:11;17.15;;;15.35;;
49578;SDS011;35483;50.828;3.228;2023-04-03T04:52:37;15.95;;;14.38;;
49578;SDS011;35483;50.828;3.228;2023-04-03T04:55:04;16.25;;;14.55;;
49578;SDS011;35483;50.828;3.228;2023-04-03T04:57:30;16.40;;;14.68;;
49578;SDS011;35483;50.828;3.228;2023-04-03T04:59:56;16.92;;;15.25;;
49578;SDS011;35483;50.828;3.228;2023-04-03T05:02:21;16.58;;;14.98;;
49578;SDS011;35483;50.828;3.228;2023-04-03T05:04:47;17.00;;;15.30;;
49578;SDS011;35483;50.828;3.228;2023-04-03T05:07:15;17.00;;;15.30;;
49578;SDS011;35483;50.828;3.228;2023-04-03T05:09:41;16.02;;;14.32;;
49578;SDS011;35483;50.828;3.228;2023-04-03T05:12:07;16.13;;;14.63;;
49578;SDS011;35483;50.828;3.228;2023-04-03T05:14:34;14.85;;;13.40;;
49578;SDS011;35483;50.828;3.228;2023-04-03T05:17:00;24.48;;;14.35;;
49578;SDS011;35483;50.828;3.228;2023-04-03T05:19:25;15.60;;;14.07;;
49578;SDS011;35483;50.828;3.228;2023-04-03T05:21:51;14.38;;;12.80;;
49578;SDS011;35483;50.828;3.228;2023-04-03T05:24:17;15.18;;;13.65;;
49578;SDS011;35483;50.828;3.228;2023-04-03T05:26:43;13.70;;;12.20;;
49578;SDS011;35483;50.828;3.228;2023-04-03T05:29:09;13.93;;;12.73;;
49578;SDS011;35483;50.828;3.228;2023-04-03T05:31:35;12.18;;;10.98;;
49578;SDS011;35483;50.828;3.228;2023-04-03T05:34:00;12.50;;;11.30;;
49578;SDS011;35483;50.828;3.228;2023-04-03T05:36:26;12.65;;;10.98;;
49578;SDS011;35483;50.828;3.228;2023-04-03T05:38:53;13.27;;;10.32;;
49578;SDS011;35483;50.828;3.228;2023-04-03T05:41:21;11.32;;;10.23;;
49578;SDS011;35483;50.828;3.228;2023-04-03T05:43:47;11.95;;;10.52;;
49578;SDS011;35483;50.828;3.228;2023-04-03T05:46:15;10.55;;;9.50;;
49578;SDS011;35483;50.828;3.228;2023-04-03T05:48:43;12.25;;;11.05;;
49578;SDS011;35483;50.828;3.228;2023-04-03T05:51:14;10.77;;;9.68;;
49578;SDS011;35483;50.828;3.228;2023-04-03T05:53:45;11.48;;;10.38;;
49578;SDS011;35483;50.828;3.228;2023-04-03T05:56:12;15.10;;;10.23;;
49578;SDS011;35483;50.828;3.228;2023-04-03T05:58:38;12.40;;;11.20;;
49578;SDS011;35483;50.828;3.228;2023-04-03T06:01:04;12.95;;;11.60;;
49578;SDS011;35483;50.828;3.228;2023-04-03T06:03:30;11.25;;;10.15;;
49578;SDS011;35483;50.828;3.228;2023-04-03T06:05:56;11.65;;;10.45;;
49578;SDS011;35483;50.828;3.228;2023-04-03T06:08:22;12.02;;;10.43;;
49578;SDS011;35483;50.828;3.228;2023-04-03T06:10:49;9.93;;;9.10;;
49578;SDS011;35483;50.828;3.228;2023-04-03T06:13:16;10.05;;;9.20;;
49578;SDS011;35483;50.828;3.228;2023-04-03T06:15:42;11.32;;;9.90;;
49578;SDS011;35483;50.828;3.228;2023-04-03T06:18:07;11.48;;;10.07;;
49578;SDS011;35483;50.828;3.228;2023-04-03T06:20:33;12.05;;;10.43;;
49578;SDS011;35483;50.828;3.228;2023-04-03T06:22:59;10.05;;;8.80;;
49578;SDS011;35483;50.828;3.228;2023-04-03T06:25:26;11.88;;;9.75;;
49578;SDS011;35483;50.828;3.228;2023-04-03T06:27:52;10.70;;;9.50;;
49578;SDS011;35483;50.828;3.228;2023-04-03T06:30:20;10.20;;;9.25;;
49578;SDS011;35483;50.828;3.228;2023-04-03T06:32:46;10.45;;;9.45;;
49578;SDS011;35483;50.828;3.228;2023-04-03T06:35:12;11.25;;;9.00;;
49578;SDS011;35483;50.828;3.228;2023-04-03T06:37:37;10.55;;;9.38;;
49578;SDS011;35483;50.828;3.228;2023-04-03T06:40:03;9.55;;;8.65;;
49578;SDS011;35483;50.828;3.228;2023-04-03T06:42:29;9.20;;;8.30;;
49578;SDS011;35483;50.828;3.228;2023-04-03T06:44:55;10.45;;;9.35;;
49578;SDS011;35483;50.828;3.228;2023-04-03T06:47:21;10.00;;;9.10;;
49578;SDS011;35483;50.828;3.228;2023-04-03T06:49:46;10.10;;;9.05;;
49578;SDS011;35483;50.828;3.228;2023-04-03T06:52:12;11.73;;;8.73;;
49578;SDS011;35483;50.828;3.228;2023-04-03T06:54:38;10.50;;;9.10;;
49578;SDS011;35483;50.828;3.228;2023-04-03T06:57:05;10.48;;;8.85;;
49578;SDS011;35483;50.828;3.228;2023-04-03T06:59:30;9.35;;;8.43;;
49578;SDS011;35483;50.828;3.228;2023-04-03T07:01:56;8.73;;;7.88;;
49578;SDS011;35483;50.828;3.228;2023-04-03T07:04:23;9.13;;;8.27;;
49578;SDS011;35483;50.828;3.228;2023-04-03T07:06:49;9.50;;;8.45;;
49578;SDS011;35483;50.828;3.228;2023-04-03T07:09:15;8.80;;;7.80;;
49578;SDS011;35483;50.828;3.228;2023-04-03T07:11:41;11.32;;;8.45;;
49578;SDS011;35483;50.828;3.228;2023-04-03T07:14:07;12.45;;;7.78;;
49578;SDS011;35483;50.828;3.228;2023-04-03T07:16:33;8.55;;;7.65;;
49578;SDS011;35483;50.828;3.228;2023-04-03T07:19:00;8.35;;;7.55;;
49578;SDS011;35483;50.828;3.228;2023-04-03T07:21:26;8.57;;;7.63;;
49578;SDS011;35483;50.828;3.228;2023-04-03T07:23:53;9.25;;;7.90;;
49578;SDS011;35483;50.828;3.228;2023-04-03T07:26:19;8.60;;;6.50;;
49578;SDS011;35483;50.828;3.228;2023-04-03T07:28:46;7.30;;;6.60;;
49578;SDS011;35483;50.828;3.228;2023-04-03T07:31:13;8.55;;;6.72;;
49578;SDS011;35483;50.828;3.228;2023-04-03T07:33:40;6.78;;;6.10;;
49578;SDS011;35483;50.828;3.228;2023-04-03T07:36:06;9.02;;;6.80;;
49578;SDS011;35483;50.828;3.228;2023-04-03T07:38:33;7.00;;;6.30;;
49578;SDS011;35483;50.828;3.228;2023-04-03T07:41:00;7.15;;;6.50;;
49578;SDS011;35483;50.828;3.228;2023-04-03T07:43:26;8.18;;;6.47;;
49578;SDS011;35483;50.828;3.228;2023-04-03T07:45:52;7.10;;;6.40;;
49578;SDS011;35483;50.828;3.228;2023-04-03T07:48:22;8.00;;;6.05;;
49578;SDS011;35483;50.828;3.228;2023-04-03T07:50:49;7.00;;;6.30;;
49578;SDS011;35483;50.828;3.228;2023-04-03T07:53:16;7.50;;;5.65;;
49578;SDS011;35483;50.828;3.228;2023-04-03T07:55:42;6.10;;;5.50;;
49578;SDS011;35483;50.828;3.228;2023-04-03T07:58:12;6.82;;;5.18;;
49578;SDS011;35483;50.828;3.228;2023-04-03T08:00:39;6.50;;;5.40;;
49578;SDS011;35483;50.828;3.228;2023-04-03T08:03:05;5.65;;;5.05;;
49578;SDS011;35483;50.828;3.228;2023-04-03T08:05:35;5.28;;;4.75;;
49578;SDS011;35483;50.828;3.228;2023-04-03T08:08:07;5.13;;;4.63;;
49578;SDS011;35483;50.828;3.228;2023-04-03T08:10:34;6.75;;;4.72;;
49578;SDS011;35483;50.828;3.228;2023-04-03T08:13:00;5.05;;;4.40;;
49578;SDS011;35483;50.828;3.228;2023-04-03T08:15:26;6.95;;;4.85;;
49578;SDS011;35483;50.828;3.228;2023-04-03T08:17:52;4.60;;;4.20;;
49578;SDS011;35483;50.828;3.228;2023-04-03T08:20:18;6.05;;;4.75;;
49578;SDS011;35483;50.828;3.228;2023-04-03T08:22:44;5.00;;;4.50;;
49578;SDS011;35483;50.828;3.228;2023-04-03T08:25:10;5.35;;;4.55;;
49578;SDS011;35483;50.828;3.228;2023-04-03T08:27:36;5.57;;;4.30;;
49578;SDS011;35483;50.828;3.228;2023-04-03T08:30:02;4.95;;;4.47;;
49578;SDS011;35483;50.828;3.228;2023-04-03T08:32:29;5.32;;;4.82;;
49578;SDS011;35483;50.828;3.228;2023-04-03T08:34:55;9.30;;;5.40;;
49578;SDS011;35483;50.828;3.228;2023-04-03T08:37:21;5.90;;;5.28;;
49578;SDS011;35483;50.828;3.228;2023-04-03T08:39:46;5.72;;;5.22;;
49578;SDS011;35483;50.828;3.228;2023-04-03T08:42:19;6.85;;;5.82;;
49578;SDS011;35483;50.828;3.228;2023-04-03T08:45:15;6.20;;;5.60;;
49578;SDS011;35483;50.828;3.228;2023-04-03T08:47:52;7.22;;;6.50;;
49578;SDS011;35483;50.828;3.228;2023-04-03T08:50:30;6.57;;;5.97;;
49578;SDS011;35483;50.828;3.228;2023-04-03T08:53:01;7.15;;;6.43;;
49578;SDS011;35483;50.828;3.228;2023-04-03T08:55:33;8.82;;;7.07;;
49578;SDS011;35483;50.828;3.228;2023-04-03T08:58:12;8.98;;;6.95;;
49578;SDS011;35483;50.828;3.228;2023-04-03T09:00:51;7.63;;;6.88;;
49578;SDS011;35483;50.828;3.228;2023-04-03T09:03:24;6.93;;;6.03;;
49578;SDS011;35483;50.828;3.228;2023-04-03T09:06:00;8.30;;;6.15;;
49578;SDS011;35483;50.828;3.228;2023-04-03T09:21:56;7.95;;;6.28;;
49578;SDS011;35483;50.828;3.228;2023-04-03T09:24:23;7.07;;;4.88;;
49578;SDS011;35483;50.828;3.228;2023-04-03T09:29:42;4.60;;;4.20;;
49578;SDS011;35483;50.828;3.228;2023-04-03T09:35:01;5.95;;;4.65;;
49578;SDS011;35483;50.828;3.228;2023-04-03T09:37:45;7.72;;;5.22;;
49578;SDS011;35483;50.828;3.228;2023-04-03T09:42:51;7.10;;;5.65;;
49578;SDS011;35483;50.828;3.228;2023-04-03T09:45:36;7.88;;;5.82;;
49578;SDS011;35483;50.828;3.228;2023-04-03T09:48:13;7.50;;;5.22;;
49578;SDS011;35483;50.828;3.228;2023-04-03T09:53:37;7.55;;;4.93;;
49578;SDS011;35483;50.828;3.228;2023-04-03T09:58:47;5.88;;;5.03;;
49578;SDS011;35483;50.828;3.228;2023-04-03T10:01:27;6.03;;;4.80;;
49578;SDS011;35483;50.828;3.228;2023-04-03T10:04:05;6.50;;;4.10;;
49578;SDS011;35483;50.828;3.228;2023-04-03T10:06:43;4.03;;;3.70;;
49578;SDS011;35483;50.828;3.228;2023-04-03T10:09:25;5.35;;;4.07;;
49578;SDS011;35483;50.828;3.228;2023-04-03T10:12:08;3.83;;;3.25;;
49578;SDS011;35483;50.828;3.228;2023-04-03T10:17:18;3.30;;;2.70;;
49578;SDS011;35483;50.828;3.228;2023-04-03T10:20:16;4.15;;;2.80;;
49578;SDS011;35483;50.828;3.228;2023-04-03T10:31:22;3.75;;;2.78;;
49578;SDS011;35483;50.828;3.228;2023-04-03T10:42:08;5.38;;;3.33;;
49578;SDS011;35483;50.828;3.228;2023-04-03T10:53:55;3.55;;;2.55;;
49578;SDS011;35483;50.828;3.228;2023-04-03T10:56:37;3.85;;;2.92;;
49578;SDS011;35483;50.828;3.228;2023-04-03T11:01:59;3.60;;;2.97;;
49578;SDS011;35483;50.828;3.228;2023-04-03T11:04:47;3.20;;;2.83;;
49578;SDS011;35483;50.828;3.228;2023-04-03T11:07:24;3.70;;;2.67;;
49578;SDS011;35483;50.828;3.228;2023-04-03T11:09:57;3.35;;;2.60;;
49578;SDS011;35483;50.828;3.228;2023-04-03T11:13:02;3.10;;;2.80;;
49578;SDS011;35483;50.828;3.228;2023-04-03T11:15:38;2.97;;;2.55;;
49578;SDS011;35483;50.828;3.228;2023-04-03T11:18:15;2.60;;;2.40;;
49578;SDS011;35483;50.828;3.228;2023-04-03T11:21:06;3.47;;;2.67;;
49578;SDS011;35483;50.828;3.228;2023-04-03T11:23:37;3.30;;;2.80;;
49578;SDS011;35483;50.828;3.228;2023-04-03T11:26:12;2.67;;;2.47;;
49578;SDS011;35483;50.828;3.228;2023-04-03T11:28:43;2.45;;;2.13;;
49578;SDS011;35483;50.828;3.228;2023-04-03T11:34:51;3.13;;;2.58;;
49578;SDS011;35483;50.828;3.228;2023-04-03T11:37:13;3.20;;;2.80;;
49578;SDS011;35483;50.828;3.228;2023-04-03T11:40:18;4.90;;;2.83;;
49578;SDS011;35483;50.828;3.228;2023-04-03T11:42:54;3.58;;;2.80;;
49578;SDS011;35483;50.828;3.228;2023-04-03T11:45:38;3.15;;;2.58;;
49578;SDS011;35483;50.828;3.228;2023-04-03T11:50:44;2.80;;;2.60;;
49578;SDS011;35483;50.828;3.228;2023-04-03T11:58:22;2.67;;;2.47;;
49578;SDS011;35483;50.828;3.228;2023-04-03T12:00:49;2.85;;;2.50;;
49578;SDS011;35483;50.828;3.228;2023-04-03T12:05:56;4.15;;;3.08;;
49578;SDS011;35483;50.828;3.228;2023-04-03T12:13:37;4.47;;;2.10;;
49578;SDS011;35483;50.828;3.228;2023-04-03T12:16:06;3.05;;;2.60;;
49578;SDS011;35483;50.828;3.228;2023-04-03T12:22:04;4.28;;;2.47;;
49578;SDS011;35483;50.828;3.228;2023-04-03T12:42:58;4.38;;;2.40;;
49578;SDS011;35483;50.828;3.228;2023-04-03T12:48:22;2.05;;;1.85;;
49578;SDS011;35483;50.828;3.228;2023-04-03T12:50:51;2.65;;;1.88;;
49578;SDS011;35483;50.828;3.228;2023-04-03T12:53:33;2.35;;;1.60;;
49578;SDS011;35483;50.828;3.228;2023-04-03T12:58:49;2.60;;;1.60;;
49578;SDS011;35483;50.828;3.228;2023-04-03T13:01:17;3.25;;;1.90;;
49578;SDS011;35483;50.828;3.228;2023-04-03T13:03:48;2.65;;;1.45;;
49578;SDS011;35483;50.828;3.228;2023-04-03T13:06:24;2.72;;;1.45;;
49578;SDS011;35483;50.828;3.228;2023-04-03T13:08:57;3.33;;;1.58;;
49578;SDS011;35483;50.828;3.228;2023-04-03T13:11:36;3.10;;;2.22;;
49578;SDS011;35483;50.828;3.228;2023-04-03T13:14:17;7.95;;;2.67;;
49578;SDS011;35483;50.828;3.228;2023-04-03T13:19:20;2.83;;;1.40;;
49578;SDS011;35483;50.828;3.228;2023-04-03T13:21:48;1.67;;;1.58;;
49578;SDS011;35483;50.828;3.228;2023-04-03T13:24:16;3.10;;;1.90;;
49578;SDS011;35483;50.828;3.228;2023-04-03T13:26:42;3.97;;;1.63;;
49578;SDS011;35483;50.828;3.228;2023-04-03T13:29:30;1.60;;;1.50;;
49578;SDS011;35483;50.828;3.228;2023-04-03T13:32:00;2.03;;;1.63;;
49578;SDS011;35483;50.828;3.228;2023-04-03T13:34:29;1.65;;;1.55;;
49578;SDS011;35483;50.828;3.228;2023-04-03T13:37:02;2.90;;;1.73;;
49578;SDS011;35483;50.828;3.228;2023-04-03T13:39:35;5.80;;;1.98;;
49578;SDS011;35483;50.828;3.228;2023-04-03T13:42:15;3.35;;;1.90;;
49578;SDS011;35483;50.828;3.228;2023-04-03T13:44:46;2.92;;;1.23;;
49578;SDS011;35483;50.828;3.228;2023-04-03T13:52:42;2.10;;;1.48;;
49578;SDS011;35483;50.828;3.228;2023-04-03T13:57:52;2.92;;;2.22;;
49578;SDS011;35483;50.828;3.228;2023-04-03T14:02:55;2.42;;;1.73;;
49578;SDS011;35483;50.828;3.228;2023-04-03T14:05:22;2.58;;;1.67;;
49578;SDS011;35483;50.828;3.228;2023-04-03T14:07:50;2.85;;;1.60;;
49578;SDS011;35483;50.828;3.228;2023-04-03T14:10:16;2.20;;;1.60;;
49578;SDS011;35483;50.828;3.228;2023-04-03T14:12:42;3.25;;;1.88;;
49578;SDS011;35483;50.828;3.228;2023-04-03T14:15:27;2.33;;;1.70;;
49578;SDS011;35483;50.828;3.228;2023-04-03T14:17:55;2.45;;;1.58;;
49578;SDS011;35483;50.828;3.228;2023-04-03T14:20:22;2.17;;;1.60;;
49578;SDS011;35483;50.828;3.228;2023-04-03T14:22:50;2.42;;;1.60;;
49578;SDS011;35483;50.828;3.228;2023-04-03T14:25:16;2.30;;;1.75;;
49578;SDS011;35483;50.828;3.228;2023-04-03T14:27:44;3.53;;;1.77;;
49578;SDS011;35483;50.828;3.228;2023-04-03T14:30:14;2.25;;;1.75;;
49578;SDS011;35483;50.828;3.228;2023-04-03T14:32:48;3.20;;;1.98;;
49578;SDS011;35483;50.828;3.228;2023-04-03T14:35:14;2.65;;;1.98;;
49578;SDS011;35483;50.828;3.228;2023-04-03T14:37:41;2.95;;;1.80;;
49578;SDS011;35483;50.828;3.228;2023-04-03T14:40:07;4.78;;;2.03;;
49578;SDS011;35483;50.828;3.228;2023-04-03T14:42:35;4.50;;;1.98;;
49578;SDS011;35483;50.828;3.228;2023-04-03T14:45:06;2.28;;;2.00;;
49578;SDS011;35483;50.828;3.228;2023-04-03T14:47:35;3.03;;;1.75;;
49578;SDS011;35483;50.828;3.228;2023-04-03T14:50:18;4.72;;;2.13;;
49578;SDS011;35483;50.828;3.228;2023-04-03T14:52:46;4.80;;;1.83;;
49578;SDS011;35483;50.828;3.228;2023-04-03T14:55:14;2.25;;;1.50;;
49578;SDS011;35483;50.828;3.228;2023-04-03T14:57:41;1.85;;;1.52;;
49578;SDS011;35483;50.828;3.228;2023-04-03T15:00:11;2.03;;;1.38;;
49578;SDS011;35483;50.828;3.228;2023-04-03T15:02:41;2.92;;;1.60;;
49578;SDS011;35483;50.828;3.228;2023-04-03T15:05:08;1.92;;;1.35;;
49578;SDS011;35483;50.828;3.228;2023-04-03T15:07:42;2.35;;;1.33;;
49578;SDS011;35483;50.828;3.228;2023-04-03T15:10:16;3.78;;;1.40;;
49578;SDS011;35483;50.828;3.228;2023-04-03T15:12:44;2.25;;;1.20;;
49578;SDS011;35483;50.828;3.228;2023-04-03T15:15:12;2.13;;;1.30;;
49578;SDS011;35483;50.828;3.228;2023-04-03T15:17:38;1.40;;;1.30;;
49578;SDS011;35483;50.828;3.228;2023-04-03T15:20:26;1.52;;;1.42;;
49578;SDS011;35483;50.828;3.228;2023-04-03T15:22:51;3.78;;;1.98;;
49578;SDS011;35483;50.828;3.228;2023-04-03T15:25:17;1.40;;;1.23;;
49578;SDS011;35483;50.828;3.228;2023-04-03T15:27:43;1.30;;;1.17;;
49578;SDS011;35483;50.828;3.228;2023-04-03T15:30:18;2.97;;;1.48;;
49578;SDS011;35483;50.828;3.228;2023-04-03T15:32:44;1.77;;;1.30;;
49578;SDS011;35483;50.828;3.228;2023-04-03T15:35:11;1.75;;;1.35;;
49578;SDS011;35483;50.828;3.228;2023-04-03T15:37:37;1.83;;;1.35;;
49578;SDS011;35483;50.828;3.228;2023-04-03T15:40:03;1.38;;;1.27;;
49578;SDS011;35483;50.828;3.228;2023-04-03T15:42:30;2.88;;;1.45;;
49578;SDS011;35483;50.828;3.228;2023-04-03T15:44:56;2.00;;;1.50;;
49578;SDS011;35483;50.828;3.228;2023-04-03T15:47:21;1.00;;;1.00;;
49578;SDS011;35483;50.828;3.228;2023-04-03T15:49:47;2.33;;;1.35;;
49578;SDS011;35483;50.828;3.228;2023-04-03T15:52:13;2.10;;;1.40;;
49578;SDS011;35483;50.828;3.228;2023-04-03T15:54:39;1.75;;;1.33;;
49578;SDS011;35483;50.828;3.228;2023-04-03T15:57:05;1.35;;;1.25;;
49578;SDS011;35483;50.828;3.228;2023-04-03T15:59:30;1.50;;;1.38;;
49578;SDS011;35483;50.828;3.228;2023-04-03T16:01:57;2.60;;;1.50;;
49578;SDS011;35483;50.828;3.228;2023-04-03T16:04:24;2.90;;;1.23;;
49578;SDS011;35483;50.828;3.228;2023-04-03T16:06:50;1.63;;;1.52;;
49578;SDS011;35483;50.828;3.228;2023-04-03T16:09:16;3.25;;;1.85;;
49578;SDS011;35483;50.828;3.228;2023-04-03T16:11:41;4.20;;;1.55;;
49578;SDS011;35483;50.828;3.228;2023-04-03T16:14:08;2.22;;;1.20;;
49578;SDS011;35483;50.828;3.228;2023-04-03T16:16:34;2.00;;;1.80;;
49578;SDS011;35483;50.828;3.228;2023-04-03T16:19:00;2.15;;;1.40;;
49578;SDS011;35483;50.828;3.228;2023-04-03T16:21:27;2.75;;;1.70;;
49578;SDS011;35483;50.828;3.228;2023-04-03T16:23:55;2.95;;;1.35;;
49578;SDS011;35483;50.828;3.228;2023-04-03T16:26:22;1.73;;;1.30;;
49578;SDS011;35483;50.828;3.228;2023-04-03T16:28:48;2.20;;;1.50;;
49578;SDS011;35483;50.828;3.228;2023-04-03T16:31:15;1.80;;;1.45;;
49578;SDS011;35483;50.828;3.228;2023-04-03T16:33:40;2.55;;;1.30;;
49578;SDS011;35483;50.828;3.228;2023-04-03T16:36:06;2.90;;;2.40;;
49578;SDS011;35483;50.828;3.228;2023-04-03T16:38:32;4.55;;;3.28;;
49578;SDS011;35483;50.828;3.228;2023-04-03T16:40:58;3.15;;;2.55;;
49578;SDS011;35483;50.828;3.228;2023-04-03T16:43:27;1.42;;;1.33;;
49578;SDS011;35483;50.828;3.228;2023-04-03T16:45:53;2.72;;;1.83;;
49578;SDS011;35483;50.828;3.228;2023-04-03T16:48:18;4.85;;;2.67;;